sensor_id;sensor_type;location;lat;lon;timestamp;pressure;altitude;pressure_sealevel;temperature;humidity
23166;BME280;11751;42.700;24.170;2023-04-08T00:02:20;94007.78;;;6.22;77.94
23166;BME280;11751;42.700;24.170;2023-04-08T00:04:45;94003.03;;;6.17;77.88
23166;BME280;11751;42.700;24.170;2023-04-08T00:07:11;94000.09;;;5.97;78.53
23166;BME280;11751;42.700;24.170;2023-04-08T00:09:36;94006.31;;;6.03;78.28
23166;BME280;11751;42.700;24.170;2023-04-08T00:12:03;94011.69;;;6.01;78.23
23166;BME280;11751;42.700;24.170;2023-04-08T00:14:28;93998.59;;;5.96;77.93
23166;BME280;11751;42.700;24.170;2023-04-08T00:16:53;94011.44;;;5.99;77.75
23166;BME280;11751;42.700;24.170;2023-04-08T00:19:19;94006.72;;;5.94;77.71
23166;BME280;11751;42.700;24.170;2023-04-08T00:21:45;94007.78;;;5.91;77.83
23166;BME280;11751;42.700;24.170;2023-04-08T00:24:10;93986.31;;;5.73;77.92
23166;BME280;11751;42.700;24.170;2023-04-08T00:26:36;94005.53;;;5.90;77.59
23166;BME280;11751;42.700;24.170;2023-04-08T00:29:01;94006.47;;;5.79;78.07
23166;BME280;11751;42.700;24.170;2023-04-08T00:31:27;94000.00;;;5.71;78.19
23166;BME280;11751;42.700;24.170;2023-04-08T00:33:52;94012.81;;;5.74;78.04
23166;BME280;11751;42.700;24.170;2023-04-08T00:36:18;94015.59;;;5.74;78.13
23166;BME280;11751;42.700;24.170;2023-04-08T00:38:43;94012.28;;;5.76;77.83
23166;BME280;11751;42.700;24.170;2023-04-08T00:41:09;94002.53;;;5.69;78.04
23166;BME280;11751;42.700;24.170;2023-04-08T00:43:34;94006.13;;;5.64;78.82
23166;BME280;11751;42.700;24.170;2023-04-08T00:46:00;94011.69;;;5.64;78.78
23166;BME280;11751;42.700;24.170;2023-04-08T00:48:25;94013.41;;;5.67;78.47
23166;BME280;11751;42.700;24.170;2023-04-08T00:50:51;93999.38;;;5.60;77.92
23166;BME280;11751;42.700;24.170;2023-04-08T00:53:17;94014.25;;;5.62;78.34
23166;BME280;11751;42.700;24.170;2023-04-08T00:55:44;94003.66;;;5.61;78.49
23166;BME280;11751;42.700;24.170;2023-04-08T00:58:10;94004.63;;;5.63;78.79
23166;BME280;11751;42.700;24.170;2023-04-08T01:00:39;94002.25;;;5.54;79.46
23166;BME280;11751;42.700;24.170;2023-04-08T01:03:27;94005.88;;;5.49;79.60
23166;BME280;11751;42.700;24.170;2023-04-08T01:06:29;94018.47;;;5.50;79.87
23166;BME280;11751;42.700;24.170;2023-04-08T01:08:59;94009.03;;;5.40;80.14
23166;BME280;11751;42.700;24.170;2023-04-08T01:11:26;94009.44;;;5.44;80.28
23166;BME280;11751;42.700;24.170;2023-04-08T01:13:54;94012.84;;;5.37;80.87
23166;BME280;11751;42.700;24.170;2023-04-08T01:16:21;94019.75;;;5.49;80.18
23166;BME280;11751;42.700;24.170;2023-04-08T01:18:49;94021.53;;;5.28;81.02
23166;BME280;11751;42.700;24.170;2023-04-08T01:21:17;94018.00;;;5.09;81.60
23166;BME280;11751;42.700;24.170;2023-04-08T01:23:55;94027.13;;;5.04;82.22
23166;BME280;11751;42.700;24.170;2023-04-08T01:26:25;94024.22;;;4.97;82.44
23166;BME280;11751;42.700;24.170;2023-04-08T01:28:57;94016.53;;;4.85;82.86
23166;BME280;11751;42.700;24.170;2023-04-08T01:31:24;94024.81;;;5.08;82.33
23166;BME280;11751;42.700;24.170;2023-04-08T01:33:51;94027.13;;;5.04;82.50
23166;BME280;11751;42.700;24.170;2023-04-08T01:36:19;94021.56;;;4.86;83.54
23166;BME280;11751;42.700;24.170;2023-04-08T01:38:46;94022.19;;;4.98;83.45
23166;BME280;11751;42.700;24.170;2023-04-08T01:41:12;94027.13;;;5.04;83.31
23166;BME280;11751;42.700;24.170;2023-04-08T01:43:38;94031.66;;;5.07;83.35
23166;BME280;11751;42.700;24.170;2023-04-08T01:46:07;94032.41;;;5.08;83.19
23166;BME280;11751;42.700;24.170;2023-04-08T01:48:34;94028.28;;;5.14;83.44
23166;BME280;11751;42.700;24.170;2023-04-08T01:51:01;94031.78;;;4.97;84.01
23166;BME280;11751;42.700;24.170;2023-04-08T01:53:27;94033.09;;;4.90;84.96
23166;BME280;11751;42.700;24.170;2023-04-08T01:55:57;94032.66;;;4.86;85.31
23166;BME280;11751;42.700;24.170;2023-04-08T01:58:26;94038.72;;;4.85;85.57
23166;BME280;11751;42.700;24.170;2023-04-08T02:00:56;94033.75;;;5.02;84.99
23166;BME280;11751;42.700;24.170;2023-04-08T02:03:23;94037.19;;;5.07;85.12
23166;BME280;11751;42.700;24.170;2023-04-08T02:05:49;94043.97;;;5.12;85.34
23166;BME280;11751;42.700;24.170;2023-04-08T02:08:15;94044.94;;;5.14;85.55
23166;BME280;11751;42.700;24.170;2023-04-08T02:10:40;94043.44;;;5.13;85.18
23166;BME280;11751;42.700;24.170;2023-04-08T02:13:06;94055.91;;;5.25;84.83
23166;BME280;11751;42.700;24.170;2023-04-08T02:15:34;94053.72;;;5.18;85.07
23166;BME280;11751;42.700;24.170;2023-04-08T02:18:15;94052.38;;;5.25;85.02
23166;BME280;11751;42.700;24.170;2023-04-08T02:20:47;94058.06;;;5.14;85.83
23166;BME280;11751;42.700;24.170;2023-04-08T02:23:21;94053.91;;;5.02;86.40
23166;BME280;11751;42.700;24.170;2023-04-08T02:25:48;94059.88;;;5.11;86.33
23166;BME280;11751;42.700;24.170;2023-04-08T02:28:16;94054.03;;;5.15;86.23
23166;BME280;11751;42.700;24.170;2023-04-08T02:30:47;94064.59;;;5.16;85.84
23166;BME280;11751;42.700;24.170;2023-04-08T02:33:14;94056.13;;;5.09;86.13
23166;BME280;11751;42.700;24.170;2023-04-08T02:35:41;94060.47;;;5.23;85.75
23166;BME280;11751;42.700;24.170;2023-04-08T02:38:08;94060.84;;;5.14;85.66
23166;BME280;11751;42.700;24.170;2023-04-08T02:40:34;94063.78;;;5.21;85.41
23166;BME280;11751;42.700;24.170;2023-04-08T02:42:59;94064.75;;;5.24;85.10
23166;BME280;11751;42.700;24.170;2023-04-08T02:45:38;94069.34;;;5.21;85.08
23166;BME280;11751;42.700;24.170;2023-04-08T02:48:05;94065.84;;;5.15;85.29
23166;BME280;11751;42.700;24.170;2023-04-08T02:50:30;94059.88;;;5.11;85.39
23166;BME280;11751;42.700;24.170;2023-04-08T02:52:56;94065.84;;;5.15;85.40
23166;BME280;11751;42.700;24.170;2023-04-08T02:55:21;94066.69;;;5.10;85.40
23166;BME280;11751;42.700;24.170;2023-04-08T02:57:47;94068.31;;;5.01;85.59
23166;BME280;11751;42.700;24.170;2023-04-08T03:00:13;94071.41;;;5.15;85.40
23166;BME280;11751;42.700;24.170;2023-04-08T03:02:39;94081.16;;;5.04;85.36
23166;BME280;11751;42.700;24.170;2023-04-08T03:05:05;94069.47;;;5.10;85.32
23166;BME280;11751;42.700;24.170;2023-04-08T03:07:31;94080.50;;;5.16;84.92
23166;BME280;11751;42.700;24.170;2023-04-08T03:09:57;94070.97;;;5.11;84.97
23166;BME280;11751;42.700;24.170;2023-04-08T03:12:22;94067.38;;;5.16;84.65
23166;BME280;11751;42.700;24.170;2023-04-08T03:14:49;94070.06;;;5.22;84.26
23166;BME280;11751;42.700;24.170;2023-04-08T03:17:15;94057.63;;;5.28;83.48
23166;BME280;11751;42.700;24.170;2023-04-08T03:19:40;94065.00;;;5.26;83.35
23166;BME280;11751;42.700;24.170;2023-04-08T03:22:06;94060.31;;;5.15;83.15
23166;BME280;11751;42.700;24.170;2023-04-08T03:24:34;94067.22;;;5.27;83.43
23166;BME280;11751;42.700;24.170;2023-04-08T03:26:59;94066.19;;;5.30;83.40
23166;BME280;11751;42.700;24.170;2023-04-08T03:29:25;94066.84;;;5.36;83.28
23166;BME280;11751;42.700;24.170;2023-04-08T03:31:51;94072.94;;;5.35;83.40
23166;BME280;11751;42.700;24.170;2023-04-08T03:34:16;94066.84;;;5.36;83.39
23166;BME280;11751;42.700;24.170;2023-04-08T03:36:42;94071.13;;;5.37;83.66
23166;BME280;11751;42.700;24.170;2023-04-08T03:39:07;94070.84;;;5.41;83.70
23166;BME280;11751;42.700;24.170;2023-04-08T03:41:33;94076.09;;;5.44;83.34
23166;BME280;11751;42.700;24.170;2023-04-08T03:43:58;94068.59;;;5.39;83.42
23166;BME280;11751;42.700;24.170;2023-04-08T03:46:23;94059.44;;;5.44;83.09
23166;BME280;11751;42.700;24.170;2023-04-08T03:48:49;94062.44;;;5.46;83.08
23166;BME280;11751;42.700;24.170;2023-04-08T03:51:14;94066.19;;;5.49;83.05
23166;BME280;11751;42.700;24.170;2023-04-08T03:53:40;94072.94;;;5.53;82.76
23166;BME280;11751;42.700;24.170;2023-04-08T03:56:06;94068.88;;;5.54;82.89
23166;BME280;11751;42.700;24.170;2023-04-08T03:58:31;94067.03;;;5.62;82.96
23166;BME280;11751;42.700;24.170;2023-04-08T04:00:56;94067.63;;;5.55;83.33
23166;BME280;11751;42.700;24.170;2023-04-08T04:03:22;94066.66;;;5.53;83.78
23166;BME280;11751;42.700;24.170;2023-04-08T04:05:47;94076.09;;;5.44;84.56
23166;BME280;11751;42.700;24.170;2023-04-08T04:08:13;94068.28;;;5.43;84.72
23166;BME280;11751;42.700;24.170;2023-04-08T04:10:38;94076.69;;;5.37;85.33
23166;BME280;11751;42.700;24.170;2023-04-08T04:13:04;94074.38;;;5.41;84.74
23166;BME280;11751;42.700;24.170;2023-04-08T04:15:30;94064.00;;;5.23;85.26
23166;BME280;11751;42.700;24.170;2023-04-08T04:17:55;94071.03;;;5.24;86.01
23166;BME280;11751;42.700;24.170;2023-04-08T04:20:21;94072.53;;;5.25;86.02
23166;BME280;11751;42.700;24.170;2023-04-08T04:22:46;94078.50;;;5.35;85.84
23166;BME280;11751;42.700;24.170;2023-04-08T04:25:11;94080.31;;;5.32;86.42
23166;BME280;11751;42.700;24.170;2023-04-08T04:27:37;94070.72;;;5.33;85.90
23166;BME280;11751;42.700;24.170;2023-04-08T04:30:03;94071.44;;;5.34;86.25
23166;BME280;11751;42.700;24.170;2023-04-08T04:32:29;94074.97;;;5.34;86.60
23166;BME280;11751;42.700;24.170;2023-04-08T04:34:54;94074.38;;;5.41;85.69
23166;BME280;11751;42.700;24.170;2023-04-08T04:37:20;94075.59;;;5.46;85.65
23166;BME280;11751;42.700;24.170;2023-04-08T04:39:45;94075.78;;;5.29;86.36
23166;BME280;11751;42.700;24.170;2023-04-08T04:42:11;94081.34;;;5.29;86.22
23166;BME280;11751;42.700;24.170;2023-04-08T04:44:36;94079.97;;;5.17;86.93
23166;BME280;11751;42.700;24.170;2023-04-08T04:47:02;94079.38;;;5.24;86.84
23166;BME280;11751;42.700;24.170;2023-04-08T04:49:28;94080.31;;;5.32;86.60
23166;BME280;11751;42.700;24.170;2023-04-08T04:51:53;94080.56;;;5.29;86.78
23166;BME280;11751;42.700;24.170;2023-04-08T04:54:19;94091.25;;;5.25;86.83
23166;BME280;11751;42.700;24.170;2023-04-08T04:56:44;94090.94;;;5.28;86.72
23166;BME280;11751;42.700;24.170;2023-04-08T04:59:10;94091.97;;;5.25;86.98
23166;BME280;11751;42.700;24.170;2023-04-08T05:01:35;94099.81;;;5.45;86.23
23166;BME280;11751;42.700;24.170;2023-04-08T05:04:01;94096.81;;;5.43;86.17
23166;BME280;11751;42.700;24.170;2023-04-08T05:06:26;94102.50;;;5.32;87.24
23166;BME280;11751;42.700;24.170;2023-04-08T05:08:52;94113.03;;;5.15;87.49
23166;BME280;11751;42.700;24.170;2023-04-08T05:11:17;94114.66;;;5.29;87.22
23166;BME280;11751;42.700;24.170;2023-04-08T05:13:43;94117.50;;;5.24;86.91
23166;BME280;11751;42.700;24.170;2023-04-08T05:16:09;94122.88;;;5.16;87.20
23166;BME280;11751;42.700;24.170;2023-04-08T05:18:34;94120.56;;;5.20;86.97
23166;BME280;11751;42.700;24.170;2023-04-08T05:21:00;94121.25;;;5.26;86.74
23166;BME280;11751;42.700;24.170;2023-04-08T05:23:26;94123.34;;;5.39;86.02
23166;BME280;11751;42.700;24.170;2023-04-08T05:25:51;94122.16;;;5.34;85.84
23166;BME280;11751;42.700;24.170;2023-04-08T05:28:17;94129.22;;;5.35;85.24
23166;BME280;11751;42.700;24.170;2023-04-08T05:30:47;94115.13;;;5.33;85.45
23166;BME280;11751;42.700;24.170;2023-04-08T05:33:13;94119.47;;;5.47;85.41
23166;BME280;11751;42.700;24.170;2023-04-08T05:35:38;94119.13;;;5.56;85.35
23166;BME280;11751;42.700;24.170;2023-04-08T05:38:04;94135.28;;;5.58;85.46
23166;BME280;11751;42.700;24.170;2023-04-08T05:40:29;94130.47;;;5.58;84.84
23166;BME280;11751;42.700;24.170;2023-04-08T05:42:55;94122.22;;;5.71;84.13
23166;BME280;11751;42.700;24.170;2023-04-08T05:45:20;94133.41;;;5.84;83.67
23166;BME280;11751;42.700;24.170;2023-04-08T05:47:45;94129.44;;;5.80;83.46
23166;BME280;11751;42.700;24.170;2023-04-08T05:50:11;94134.63;;;6.07;82.87
23166;BME280;11751;42.700;24.170;2023-04-08T05:52:41;94130.72;;;6.15;82.47
23166;BME280;11751;42.700;24.170;2023-04-08T05:55:08;94119.72;;;6.23;82.11
23166;BME280;11751;42.700;24.170;2023-04-08T05:57:33;94106.84;;;6.38;81.01
23166;BME280;11751;42.700;24.170;2023-04-08T05:59:58;94122.16;;;6.45;79.99
23166;BME280;11751;42.700;24.170;2023-04-08T06:02:24;94127.78;;;6.58;79.20
23166;BME280;11751;42.700;24.170;2023-04-08T06:04:49;94123.31;;;6.68;78.60
23166;BME280;11751;42.700;24.170;2023-04-08T06:07:15;94116.78;;;6.78;77.80
23166;BME280;11751;42.700;24.170;2023-04-08T06:09:40;94120.66;;;6.88;76.82
23166;BME280;11751;42.700;24.170;2023-04-08T06:12:05;94120.59;;;7.06;77.04
23166;BME280;11751;42.700;24.170;2023-04-08T06:14:31;94116.31;;;7.31;76.05
23166;BME280;11751;42.700;24.170;2023-04-08T06:16:56;94120.28;;;7.49;75.09
23166;BME280;11751;42.700;24.170;2023-04-08T06:19:22;94119.31;;;7.46;74.69
23166;BME280;11751;42.700;24.170;2023-04-08T06:21:47;94114.72;;;7.62;74.39
23166;BME280;11751;42.700;24.170;2023-04-08T06:24:12;94104.75;;;7.66;75.01
23166;BME280;11751;42.700;24.170;2023-04-08T06:26:38;94113.25;;;7.94;74.58
23166;BME280;11751;42.700;24.170;2023-04-08T06:29:03;94109.34;;;8.10;73.42
23166;BME280;11751;42.700;24.170;2023-04-08T06:31:29;94112.28;;;8.38;72.67
23166;BME280;11751;42.700;24.170;2023-04-08T06:33:54;94116.31;;;8.49;71.93
23166;BME280;11751;42.700;24.170;2023-04-08T06:36:20;94109.91;;;8.62;71.95
23166;BME280;11751;42.700;24.170;2023-04-08T06:38:45;94099.59;;;8.70;70.88
23166;BME280;11751;42.700;24.170;2023-04-08T06:41:11;94094.69;;;8.63;68.76
23166;BME280;11751;42.700;24.170;2023-04-08T06:43:36;94094.94;;;8.52;69.42
23166;BME280;11751;42.700;24.170;2023-04-08T06:46:02;94092.97;;;8.80;69.75
23166;BME280;11751;42.700;24.170;2023-04-08T06:48:28;94090.75;;;8.79;69.51
23166;BME280;11751;42.700;24.170;2023-04-08T06:50:58;94090.91;;;9.01;68.88
23166;BME280;11751;42.700;24.170;2023-04-08T06:53:24;94097.59;;;8.98;68.54
23166;BME280;11751;42.700;24.170;2023-04-08T06:55:50;94099.16;;;8.86;68.65
23166;BME280;11751;42.700;24.170;2023-04-08T06:58:16;94094.91;;;9.13;68.24
23166;BME280;11751;42.700;24.170;2023-04-08T07:00:41;94096.00;;;9.38;68.00
23166;BME280;11751;42.700;24.170;2023-04-08T07:03:07;94093.22;;;9.38;67.48
23166;BME280;11751;42.700;24.170;2023-04-08T07:05:34;94097.22;;;9.50;67.47
23166;BME280;11751;42.700;24.170;2023-04-08T07:08:00;94089.09;;;9.67;66.98
23166;BME280;11751;42.700;24.170;2023-04-08T07:10:26;94096.28;;;9.83;66.97
23166;BME280;11751;42.700;24.170;2023-04-08T07:12:52;94095.31;;;10.16;66.39
23166;BME280;11751;42.700;24.170;2023-04-08T07:15:18;94090.38;;;10.51;65.36
23166;BME280;11751;42.700;24.170;2023-04-08T07:17:43;94087.59;;;10.59;64.44
23166;BME280;11751;42.700;24.170;2023-04-08T07:20:09;94081.63;;;10.92;63.56
23166;BME280;11751;42.700;24.170;2023-04-08T07:22:35;94082.03;;;11.11;63.92
23166;BME280;11751;42.700;24.170;2023-04-08T07:25:00;94084.28;;;11.12;63.10
23166;BME280;11751;42.700;24.170;2023-04-08T07:27:27;94083.13;;;11.38;63.33
23166;BME280;11751;42.700;24.170;2023-04-08T07:29:52;94084.06;;;11.40;63.56
23166;BME280;11751;42.700;24.170;2023-04-08T07:32:19;94076.78;;;11.60;63.57
23166;BME280;11751;42.700;24.170;2023-04-08T07:34:44;94078.75;;;11.82;61.61
23166;BME280;11751;42.700;24.170;2023-04-08T07:37:09;94088.06;;;11.99;60.12
23166;BME280;11751;42.700;24.170;2023-04-08T07:39:35;94087.13;;;11.96;61.81
23166;BME280;11751;42.700;24.170;2023-04-08T07:42:00;94088.03;;;12.06;61.20
23166;BME280;11751;42.700;24.170;2023-04-08T07:44:26;94101.28;;;12.13;61.19
23166;BME280;11751;42.700;24.170;2023-04-08T07:46:51;94097.34;;;12.16;61.93
23166;BME280;11751;42.700;24.170;2023-04-08T07:49:17;94096.09;;;12.02;62.99
23166;BME280;11751;42.700;24.170;2023-04-08T07:51:42;94096.03;;;12.17;61.98
23166;BME280;11751;42.700;24.170;2023-04-08T07:54:07;94100.34;;;12.18;62.58
23166;BME280;11751;42.700;24.170;2023-04-08T07:56:36;94095.69;;;12.06;62.07
23166;BME280;11751;42.700;24.170;2023-04-08T07:59:05;94109.53;;;12.11;62.25
23166;BME280;11751;42.700;24.170;2023-04-08T08:01:30;94115.13;;;12.11;61.96
23166;BME280;11751;42.700;24.170;2023-04-08T08:03:59;94112.19;;;12.02;62.44
23166;BME280;11751;42.700;24.170;2023-04-08T08:06:24;94111.63;;;12.03;61.84
23166;BME280;11751;42.700;24.170;2023-04-08T08:08:50;94108.09;;;11.95;61.59
23166;BME280;11751;42.700;24.170;2023-04-08T08:11:15;94111.50;;;11.79;62.88
23166;BME280;11751;42.700;24.170;2023-04-08T08:13:41;94103.09;;;11.72;63.14
23166;BME280;11751;42.700;24.170;2023-04-08T08:16:09;94114.16;;;11.70;63.85
23166;BME280;11751;42.700;24.170;2023-04-08T08:18:36;94109.28;;;11.48;63.79
23166;BME280;11751;42.700;24.170;2023-04-08T08:21:02;94117.91;;;11.50;64.41
23166;BME280;11751;42.700;24.170;2023-04-08T08:23:28;94123.50;;;11.05;65.06
23166;BME280;11751;42.700;24.170;2023-04-08T08:26:01;94123.13;;;11.16;65.19
23166;BME280;11751;42.700;24.170;2023-04-08T08:28:26;94109.31;;;11.18;66.28
23166;BME280;11751;42.700;24.170;2023-04-08T08:30:52;94114.91;;;11.18;65.92
23166;BME280;11751;42.700;24.170;2023-04-08T08:33:18;94118.81;;;11.15;66.34
23166;BME280;11751;42.700;24.170;2023-04-08T08:35:43;94122.19;;;11.36;64.57
23166;BME280;11751;42.700;24.170;2023-04-08T08:38:09;94124.22;;;11.65;64.79
23166;BME280;11751;42.700;24.170;2023-04-08T08:40:34;94131.72;;;11.63;63.38
23166;BME280;11751;42.700;24.170;2023-04-08T08:43:00;94130.59;;;11.66;63.34
23166;BME280;11751;42.700;24.170;2023-04-08T08:45:26;94125.75;;;11.59;63.97
23166;BME280;11751;42.700;24.170;2023-04-08T08:47:52;94119.00;;;11.62;64.43
23166;BME280;11751;42.700;24.170;2023-04-08T08:50:18;94137.72;;;11.67;64.63
23166;BME280;11751;42.700;24.170;2023-04-08T08:52:50;94120.16;;;11.59;64.38
23166;BME280;11751;42.700;24.170;2023-04-08T08:55:20;94120.69;;;11.57;64.28
23166;BME280;11751;42.700;24.170;2023-04-08T08:57:48;94120.09;;;11.89;64.40
23166;BME280;11751;42.700;24.170;2023-04-08T09:00:15;94124.94;;;11.95;64.65
23166;BME280;11751;42.700;24.170;2023-04-08T09:02:41;94131.13;;;11.72;64.17
23166;BME280;11751;42.700;24.170;2023-04-08T09:05:06;94131.28;;;11.96;63.29
23166;BME280;11751;42.700;24.170;2023-04-08T09:07:36;94135.00;;;12.06;64.43
23166;BME280;11751;42.700;24.170;2023-04-08T09:10:02;94135.81;;;12.38;63.66
23166;BME280;11751;42.700;24.170;2023-04-08T09:12:28;94136.19;;;12.35;64.33
23166;BME280;11751;42.700;24.170;2023-04-08T09:15:06;94143.81;;;12.49;62.70
23166;BME280;11751;42.700;24.170;2023-04-08T09:17:37;94144.25;;;12.38;62.07
23166;BME280;11751;42.700;24.170;2023-04-08T09:22:47;94131.88;;;12.41;62.51
23166;BME280;11751;42.700;24.170;2023-04-08T09:25:37;94130.75;;;12.76;61.45
23166;BME280;11751;42.700;24.170;2023-04-08T09:28:02;94132.25;;;13.09;60.31
23166;BME280;11751;42.700;24.170;2023-04-08T09:30:28;94131.06;;;13.44;59.78
23166;BME280;11751;42.700;24.170;2023-04-08T09:32:55;94118.16;;;13.99;58.03
23166;BME280;11751;42.700;24.170;2023-04-08T09:35:21;94126.72;;;14.25;57.27
23166;BME280;11751;42.700;24.170;2023-04-08T09:37:49;94118.25;;;14.42;56.55
23166;BME280;11751;42.700;24.170;2023-04-08T09:40:15;94115.91;;;14.48;56.46
23166;BME280;11751;42.700;24.170;2023-04-08T09:42:44;94117.31;;;14.56;56.37
23166;BME280;11751;42.700;24.170;2023-04-08T09:45:12;94127.44;;;14.86;54.68
23166;BME280;11751;42.700;24.170;2023-04-08T09:48:16;94123.56;;;15.08;55.16
23166;BME280;11751;42.700;24.170;2023-04-08T09:50:46;94120.84;;;14.74;55.26
23166;BME280;11751;42.700;24.170;2023-04-08T09:53:19;94122.75;;;14.71;55.75
23166;BME280;11751;42.700;24.170;2023-04-08T09:55:50;94130.09;;;14.84;55.84
23166;BME280;11751;42.700;24.170;2023-04-08T09:58:24;94129.38;;;14.83;53.82
23166;BME280;11751;42.700;24.170;2023-04-08T10:00:53;94121.53;;;14.65;53.84
23166;BME280;11751;42.700;24.170;2023-04-08T10:03:31;94111.16;;;14.94;53.28
23166;BME280;11751;42.700;24.170;2023-04-08T10:06:00;94118.16;;;14.93;53.52
23166;BME280;11751;42.700;24.170;2023-04-08T10:08:27;94112.44;;;15.10;53.05
23166;BME280;11751;42.700;24.170;2023-04-08T10:10:55;94103.84;;;15.34;53.92
23166;BME280;11751;42.700;24.170;2023-04-08T10:13:22;94109.22;;;15.23;52.31
23166;BME280;11751;42.700;24.170;2023-04-08T10:15:47;94101.31;;;15.38;51.88
23166;BME280;11751;42.700;24.170;2023-04-08T10:23:12;94111.03;;;14.92;52.51
23166;BME280;11751;42.700;24.170;2023-04-08T10:25:42;94113.06;;;14.65;52.22
23166;BME280;11751;42.700;24.170;2023-04-08T10:30:45;94105.28;;;14.73;53.20
23166;BME280;11751;42.700;24.170;2023-04-08T10:33:15;94102.84;;;14.43;53.54
23166;BME280;11751;42.700;24.170;2023-04-08T10:38:14;94101.59;;;13.86;54.12
23166;BME280;11751;42.700;24.170;2023-04-08T10:40:41;94106.84;;;14.23;53.88
23166;BME280;11751;42.700;24.170;2023-04-08T10:43:11;94109.75;;;14.16;54.04
23166;BME280;11751;42.700;24.170;2023-04-08T10:45:41;94106.31;;;14.00;53.53
23166;BME280;11751;42.700;24.170;2023-04-08T10:48:23;94108.72;;;13.87;53.63
23166;BME280;11751;42.700;24.170;2023-04-08T10:53:25;94104.09;;;13.58;55.03
23166;BME280;11751;42.700;24.170;2023-04-08T10:55:51;94093.81;;;13.36;55.92
23166;BME280;11751;42.700;24.170;2023-04-08T10:58:17;94096.91;;;13.47;56.06
23166;BME280;11751;42.700;24.170;2023-04-08T11:00:42;94090.84;;;13.34;56.83
23166;BME280;11751;42.700;24.170;2023-04-08T11:03:09;94096.09;;;13.30;57.30
23166;BME280;11751;42.700;24.170;2023-04-08T11:05:36;94086.94;;;13.05;58.22
23166;BME280;11751;42.700;24.170;2023-04-08T11:08:02;94098.63;;;12.94;59.27
23166;BME280;11751;42.700;24.170;2023-04-08T11:10:28;94089.22;;;12.99;59.70
23166;BME280;11751;42.700;24.170;2023-04-08T11:12:55;94091.06;;;13.04;59.89
23166;BME280;11751;42.700;24.170;2023-04-08T11:15:22;94093.38;;;12.66;60.84
23166;BME280;11751;42.700;24.170;2023-04-08T11:17:48;94088.94;;;12.80;60.40
23166;BME280;11751;42.700;24.170;2023-04-08T11:20:14;94087.81;;;12.51;59.35
23166;BME280;11751;42.700;24.170;2023-04-08T11:22:40;94091.75;;;12.48;59.76
23166;BME280;11751;42.700;24.170;2023-04-08T11:25:09;94092.03;;;12.35;59.14
23166;BME280;11751;42.700;24.170;2023-04-08T11:27:35;94088.94;;;12.16;60.39
23166;BME280;11751;42.700;24.170;2023-04-08T11:30:01;94085.44;;;11.93;63.09
23166;BME280;11751;42.700;24.170;2023-04-08T11:32:28;94085.56;;;11.49;62.18
23166;BME280;11751;42.700;24.170;2023-04-08T11:34:53;94090.22;;;11.69;62.84
23166;BME280;11751;42.700;24.170;2023-04-08T11:37:19;94081.63;;;11.67;61.87
23166;BME280;11751;42.700;24.170;2023-04-08T11:39:45;94083.50;;;11.57;63.14
23166;BME280;11751;42.700;24.170;2023-04-08T11:42:30;94080.31;;;11.45;63.85
23166;BME280;11751;42.700;24.170;2023-04-08T11:44:56;94078.63;;;11.50;63.89
23166;BME280;11751;42.700;24.170;2023-04-08T11:47:32;94077.88;;;11.42;63.85
23166;BME280;11751;42.700;24.170;2023-04-08T11:49:58;94078.66;;;11.35;64.37
23166;BME280;11751;42.700;24.170;2023-04-08T11:52:46;94090.97;;;11.47;64.26
23166;BME280;11751;42.700;24.170;2023-04-08T11:55:33;94082.38;;;11.45;63.97
23166;BME280;11751;42.700;24.170;2023-04-08T11:58:03;94079.03;;;11.31;65.05
23166;BME280;11751;42.700;24.170;2023-04-08T12:00:29;94074.53;;;11.21;65.44
23166;BME280;11751;42.700;24.170;2023-04-08T12:02:55;94070.81;;;11.18;63.99
23166;BME280;11751;42.700;24.170;2023-04-08T12:05:20;94068.38;;;11.07;66.09
23166;BME280;11751;42.700;24.170;2023-04-08T12:07:46;94062.59;;;11.20;67.02
23166;BME280;11751;42.700;24.170;2023-04-08T12:10:12;94059.97;;;11.30;65.64
23166;BME280;11751;42.700;24.170;2023-04-08T12:12:38;94052.50;;;11.40;69.87
23166;BME280;11751;42.700;24.170;2023-04-08T12:15:04;94050.16;;;11.76;71.02
23166;BME280;11751;42.700;24.170;2023-04-08T12:17:30;94055.69;;;11.98;70.03
23166;BME280;11751;42.700;24.170;2023-04-08T12:19:56;94049.88;;;12.03;68.75
23166;BME280;11751;42.700;24.170;2023-04-08T12:22:21;94041.03;;;12.14;66.47
23166;BME280;11751;42.700;24.170;2023-04-08T12:24:47;94047.84;;;12.04;65.41
23166;BME280;11751;42.700;24.170;2023-04-08T12:27:12;94040.38;;;11.92;66.77
23166;BME280;11751;42.700;24.170;2023-04-08T12:29:38;94045.94;;;11.60;65.35
23166;BME280;11751;42.700;24.170;2023-04-08T12:32:04;94044.56;;;11.76;66.04
23166;BME280;11751;42.700;24.170;2023-04-08T12:34:30;94033.34;;;11.76;66.08
23166;BME280;11751;42.700;24.170;2023-04-08T12:36:55;94038.56;;;11.72;65.32
23166;BME280;11751;42.700;24.170;2023-04-08T12:39:21;94040.78;;;11.81;64.80
23166;BME280;11751;42.700;24.170;2023-04-08T12:41:46;94032.81;;;11.62;63.47
23166;BME280;11751;42.700;24.170;2023-04-08T12:44:12;94032.63;;;11.68;65.41
23166;BME280;11751;42.700;24.170;2023-04-08T12:46:37;94032.97;;;11.72;65.83
23166;BME280;11751;42.700;24.170;2023-04-08T12:49:03;94029.63;;;11.73;62.92
23166;BME280;11751;42.700;24.170;2023-04-08T12:51:28;94028.06;;;11.80;61.78
23166;BME280;11751;42.700;24.170;2023-04-08T12:53:54;94022.53;;;11.65;60.60
23166;BME280;11751;42.700;24.170;2023-04-08T12:56:19;94022.53;;;11.65;61.31
23166;BME280;11751;42.700;24.170;2023-04-08T12:58:45;94016.53;;;11.61;60.61
23166;BME280;11751;42.700;24.170;2023-04-08T13:01:11;94020.25;;;11.71;61.68
23166;BME280;11751;42.700;24.170;2023-04-08T13:03:36;94011.44;;;11.82;61.55
23166;BME280;11751;42.700;24.170;2023-04-08T13:06:02;94010.06;;;11.97;60.78
23166;BME280;11751;42.700;24.170;2023-04-08T13:08:27;94009.38;;;11.82;59.50
23166;BME280;11751;42.700;24.170;2023-04-08T13:10:53;94019.00;;;11.64;59.74